sensor_id;sensor_type;location;lat;lon;timestamp;P1;durP1;ratioP1;P2;durP2;ratioP2
56429;SDS011;42332;52.136;20.666;2023-05-29T00:01:59;11.40;;;4.03;;
56429;SDS011;42332;52.136;20.666;2023-05-29T00:04:24;11.93;;;4.00;;
56429;SDS011;42332;52.136;20.666;2023-05-29T00:06:49;11.73;;;4.40;;
56429;SDS011;42332;52.136;20.666;2023-05-29T00:09:15;11.35;;;4.05;;
56429;SDS011;42332;52.136;20.666;2023-05-29T00:11:41;10.30;;;4.20;;
56429;SDS011;42332;52.136;20.666;2023-05-29T00:14:06;14.27;;;4.22;;
56429;SDS011;42332;52.136;20.666;2023-05-29T00:16:31;11.20;;;4.78;;
56429;SDS011;42332;52.136;20.666;2023-05-29T00:18:57;10.15;;;4.15;;
56429;SDS011;42332;52.136;20.666;2023-05-29T00:21:22;11.23;;;3.88;;
56429;SDS011;42332;52.136;20.666;2023-05-29T00:23:48;13.43;;;4.18;;
56429;SDS011;42332;52.136;20.666;2023-05-29T00:26:13;13.05;;;4.38;;
56429;SDS011;42332;52.136;20.666;2023-05-29T00:28:41;16.00;;;6.47;;
56429;SDS011;42332;52.136;20.666;2023-05-29T00:31:07;10.32;;;4.65;;
56429;SDS011;42332;52.136;20.666;2023-05-29T00:33:32;10.48;;;4.15;;
56429;SDS011;42332;52.136;20.666;2023-05-29T00:35:58;8.63;;;3.97;;
56429;SDS011;42332;52.136;20.666;2023-05-29T00:38:23;13.57;;;4.40;;
56429;SDS011;42332;52.136;20.666;2023-05-29T00:40:48;15.70;;;4.15;;
56429;SDS011;42332;52.136;20.666;2023-05-29T00:43:14;11.77;;;4.18;;
56429;SDS011;42332;52.136;20.666;2023-05-29T00:45:39;9.45;;;3.85;;
56429;SDS011;42332;52.136;20.666;2023-05-29T00:48:05;14.05;;;4.60;;
56429;SDS011;42332;52.136;20.666;2023-05-29T00:50:30;11.70;;;4.30;;
56429;SDS011;42332;52.136;20.666;2023-05-29T00:52:57;12.60;;;4.72;;
56429;SDS011;42332;52.136;20.666;2023-05-29T00:55:25;12.90;;;4.78;;
56429;SDS011;42332;52.136;20.666;2023-05-29T00:57:50;15.45;;;5.00;;
56429;SDS011;42332;52.136;20.666;2023-05-29T01:00:16;13.27;;;4.18;;
56429;SDS011;42332;52.136;20.666;2023-05-29T01:02:43;15.13;;;4.72;;
56429;SDS011;42332;52.136;20.666;2023-05-29T01:05:09;11.70;;;4.60;;
56429;SDS011;42332;52.136;20.666;2023-05-29T01:07:36;10.48;;;4.50;;
56429;SDS011;42332;52.136;20.666;2023-05-29T01:10:02;14.68;;;5.00;;
56429;SDS011;42332;52.136;20.666;2023-05-29T01:29:26;10.45;;;4.80;;
56429;SDS011;42332;52.136;20.666;2023-05-29T01:31:53;11.77;;;4.78;;
56429;SDS011;42332;52.136;20.666;2023-05-29T01:34:19;11.43;;;4.13;;
56429;SDS011;42332;52.136;20.666;2023-05-29T01:36:45;19.67;;;5.35;;
56429;SDS011;42332;52.136;20.666;2023-05-29T01:39:11;9.07;;;4.13;;
56429;SDS011;42332;52.136;20.666;2023-05-29T01:41:37;10.75;;;4.28;;
56429;SDS011;42332;52.136;20.666;2023-05-29T01:44:03;8.57;;;4.22;;
56429;SDS011;42332;52.136;20.666;2023-05-29T01:46:33;14.57;;;5.05;;
56429;SDS011;42332;52.136;20.666;2023-05-29T01:49:00;11.38;;;4.88;;
56429;SDS011;42332;52.136;20.666;2023-05-29T01:51:26;10.82;;;4.50;;
56429;SDS011;42332;52.136;20.666;2023-05-29T01:53:51;10.95;;;4.30;;
56429;SDS011;42332;52.136;20.666;2023-05-29T01:56:17;9.98;;;4.50;;
56429;SDS011;42332;52.136;20.666;2023-05-29T01:58:42;10.40;;;4.25;;
56429;SDS011;42332;52.136;20.666;2023-05-29T02:01:08;10.45;;;4.95;;
56429;SDS011;42332;52.136;20.666;2023-05-29T02:03:34;9.65;;;4.28;;
56429;SDS011;42332;52.136;20.666;2023-05-29T02:06:00;12.35;;;4.28;;
56429;SDS011;42332;52.136;20.666;2023-05-29T02:08:26;13.13;;;4.82;;
56429;SDS011;42332;52.136;20.666;2023-05-29T02:10:51;11.02;;;5.15;;
56429;SDS011;42332;52.136;20.666;2023-05-29T02:13:17;12.48;;;4.25;;
56429;SDS011;42332;52.136;20.666;2023-05-29T02:15:42;13.32;;;4.63;;
56429;SDS011;42332;52.136;20.666;2023-05-29T02:18:09;17.10;;;4.82;;
56429;SDS011;42332;52.136;20.666;2023-05-29T02:20:37;11.05;;;4.95;;
56429;SDS011;42332;52.136;20.666;2023-05-29T02:23:02;11.20;;;4.35;;
56429;SDS011;42332;52.136;20.666;2023-05-29T02:25:27;11.73;;;4.38;;
56429;SDS011;42332;52.136;20.666;2023-05-29T02:27:53;11.07;;;4.55;;
56429;SDS011;42332;52.136;20.666;2023-05-29T02:30:18;9.10;;;4.35;;
56429;SDS011;42332;52.136;20.666;2023-05-29T02:32:43;14.50;;;4.32;;
56429;SDS011;42332;52.136;20.666;2023-05-29T02:35:09;14.13;;;4.72;;
56429;SDS011;42332;52.136;20.666;2023-05-29T02:37:35;12.02;;;4.32;;
56429;SDS011;42332;52.136;20.666;2023-05-29T02:40:00;12.02;;;4.30;;
56429;SDS011;42332;52.136;20.666;2023-05-29T02:42:25;9.85;;;3.97;;
56429;SDS011;42332;52.136;20.666;2023-05-29T02:44:51;10.27;;;4.70;;
56429;SDS011;42332;52.136;20.666;2023-05-29T02:47:16;12.75;;;4.28;;
56429;SDS011;42332;52.136;20.666;2023-05-29T02:49:41;10.98;;;4.30;;
56429;SDS011;42332;52.136;20.666;2023-05-29T02:52:07;10.82;;;4.65;;
56429;SDS011;42332;52.136;20.666;2023-05-29T02:54:32;17.85;;;4.68;;
56429;SDS011;42332;52.136;20.666;2023-05-29T02:56:57;22.50;;;4.50;;
56429;SDS011;42332;52.136;20.666;2023-05-29T02:59:23;13.88;;;4.88;;
56429;SDS011;42332;52.136;20.666;2023-05-29T03:01:48;10.45;;;4.07;;
56429;SDS011;42332;52.136;20.666;2023-05-29T03:04:14;10.98;;;4.68;;
56429;SDS011;42332;52.136;20.666;2023-05-29T03:06:39;14.57;;;4.25;;
56429;SDS011;42332;52.136;20.666;2023-05-29T03:09:05;20.25;;;5.45;;
56429;SDS011;42332;52.136;20.666;2023-05-29T03:11:31;11.48;;;4.50;;
56429;SDS011;42332;52.136;20.666;2023-05-29T03:13:57;24.35;;;4.50;;
56429;SDS011;42332;52.136;20.666;2023-05-29T03:16:23;11.38;;;4.80;;
56429;SDS011;42332;52.136;20.666;2023-05-29T03:18:48;10.77;;;4.60;;
56429;SDS011;42332;52.136;20.666;2023-05-29T03:21:14;12.10;;;4.68;;
56429;SDS011;42332;52.136;20.666;2023-05-29T03:23:40;11.32;;;4.70;;
56429;SDS011;42332;52.136;20.666;2023-05-29T03:26:05;15.25;;;4.50;;
56429;SDS011;42332;52.136;20.666;2023-05-29T03:28:31;11.18;;;5.40;;
56429;SDS011;42332;52.136;20.666;2023-05-29T03:30:56;13.20;;;4.57;;
56429;SDS011;42332;52.136;20.666;2023-05-29T03:33:22;14.68;;;6.25;;
56429;SDS011;42332;52.136;20.666;2023-05-29T03:35:47;22.40;;;5.55;;
56429;SDS011;42332;52.136;20.666;2023-05-29T03:38:13;11.23;;;5.07;;
56429;SDS011;42332;52.136;20.666;2023-05-29T03:40:38;9.65;;;4.80;;
56429;SDS011;42332;52.136;20.666;2023-05-29T03:43:03;11.95;;;4.75;;
56429;SDS011;42332;52.136;20.666;2023-05-29T03:45:29;17.33;;;4.95;;
56429;SDS011;42332;52.136;20.666;2023-05-29T03:47:54;10.40;;;4.90;;
56429;SDS011;42332;52.136;20.666;2023-05-29T03:50:20;11.45;;;4.40;;
56429;SDS011;42332;52.136;20.666;2023-05-29T03:52:45;14.75;;;4.32;;
56429;SDS011;42332;52.136;20.666;2023-05-29T03:55:10;12.10;;;4.78;;
56429;SDS011;42332;52.136;20.666;2023-05-29T03:57:39;11.00;;;4.78;;
56429;SDS011;42332;52.136;20.666;2023-05-29T04:00:06;14.73;;;4.82;;
56429;SDS011;42332;52.136;20.666;2023-05-29T04:02:34;11.50;;;4.60;;
56429;SDS011;42332;52.136;20.666;2023-05-29T04:04:59;11.07;;;5.20;;
56429;SDS011;42332;52.136;20.666;2023-05-29T04:07:25;8.80;;;4.47;;
56429;SDS011;42332;52.136;20.666;2023-05-29T04:09:50;11.93;;;5.13;;
56429;SDS011;42332;52.136;20.666;2023-05-29T04:12:16;9.90;;;4.00;;
56429;SDS011;42332;52.136;20.666;2023-05-29T04:14:41;17.02;;;4.57;;
56429;SDS011;42332;52.136;20.666;2023-05-29T04:17:07;12.13;;;5.00;;
56429;SDS011;42332;52.136;20.666;2023-05-29T04:19:32;9.70;;;4.85;;
56429;SDS011;42332;52.136;20.666;2023-05-29T04:21:57;13.80;;;4.55;;
56429;SDS011;42332;52.136;20.666;2023-05-29T04:24:23;11.95;;;4.95;;
56429;SDS011;42332;52.136;20.666;2023-05-29T04:26:49;10.52;;;4.63;;
56429;SDS011;42332;52.136;20.666;2023-05-29T04:29:16;12.10;;;4.63;;
56429;SDS011;42332;52.136;20.666;2023-05-29T04:31:41;17.77;;;5.07;;
56429;SDS011;42332;52.136;20.666;2023-05-29T04:34:07;12.88;;;4.93;;
56429;SDS011;42332;52.136;20.666;2023-05-29T04:36:33;13.40;;;5.10;;
56429;SDS011;42332;52.136;20.666;2023-05-29T04:38:58;11.93;;;4.97;;
56429;SDS011;42332;52.136;20.666;2023-05-29T04:41:24;13.73;;;5.18;;
56429;SDS011;42332;52.136;20.666;2023-05-29T04:43:57;20.17;;;5.25;;
56429;SDS011;42332;52.136;20.666;2023-05-29T04:46:23;21.27;;;5.93;;
56429;SDS011;42332;52.136;20.666;2023-05-29T04:48:50;17.92;;;5.30;;
56429;SDS011;42332;52.136;20.666;2023-05-29T04:51:18;14.05;;;4.80;;
56429;SDS011;42332;52.136;20.666;2023-05-29T04:53:45;18.88;;;5.18;;
56429;SDS011;42332;52.136;20.666;2023-05-29T04:56:11;19.38;;;4.75;;
56429;SDS011;42332;52.136;20.666;2023-05-29T04:58:37;20.45;;;5.22;;
56429;SDS011;42332;52.136;20.666;2023-05-29T05:01:02;19.70;;;4.95;;
56429;SDS011;42332;52.136;20.666;2023-05-29T05:03:28;9.77;;;4.13;;
56429;SDS011;42332;52.136;20.666;2023-05-29T05:05:55;14.65;;;4.50;;
56429;SDS011;42332;52.136;20.666;2023-05-29T05:08:21;15.77;;;4.20;;
56429;SDS011;42332;52.136;20.666;2023-05-29T05:10:46;12.35;;;4.47;;
56429;SDS011;42332;52.136;20.666;2023-05-29T05:13:12;10.43;;;3.95;;
56429;SDS011;42332;52.136;20.666;2023-05-29T05:15:37;11.00;;;3.78;;
56429;SDS011;42332;52.136;20.666;2023-05-29T05:18:03;11.70;;;4.15;;
56429;SDS011;42332;52.136;20.666;2023-05-29T05:20:28;11.75;;;3.63;;
56429;SDS011;42332;52.136;20.666;2023-05-29T05:22:53;20.35;;;3.78;;
56429;SDS011;42332;52.136;20.666;2023-05-29T05:25:20;8.20;;;3.72;;
56429;SDS011;42332;52.136;20.666;2023-05-29T05:27:46;8.52;;;3.45;;
56429;SDS011;42332;52.136;20.666;2023-05-29T05:30:11;14.80;;;4.20;;
56429;SDS011;42332;52.136;20.666;2023-05-29T05:32:37;15.27;;;3.92;;
56429;SDS011;42332;52.136;20.666;2023-05-29T05:35:02;12.98;;;4.25;;
56429;SDS011;42332;52.136;20.666;2023-05-29T05:37:28;16.48;;;3.95;;
56429;SDS011;42332;52.136;20.666;2023-05-29T05:39:54;10.75;;;3.45;;
56429;SDS011;42332;52.136;20.666;2023-05-29T05:42:19;13.57;;;3.78;;
56429;SDS011;42332;52.136;20.666;2023-05-29T05:44:45;14.10;;;3.55;;
56429;SDS011;42332;52.136;20.666;2023-05-29T05:47:10;31.42;;;4.10;;
56429;SDS011;42332;52.136;20.666;2023-05-29T05:49:36;16.45;;;4.03;;
56429;SDS011;42332;52.136;20.666;2023-05-29T05:52:01;9.82;;;3.35;;
56429;SDS011;42332;52.136;20.666;2023-05-29T05:54:26;7.95;;;2.95;;
56429;SDS011;42332;52.136;20.666;2023-05-29T05:56:52;13.85;;;3.92;;
56429;SDS011;42332;52.136;20.666;2023-05-29T05:59:17;16.70;;;3.95;;
56429;SDS011;42332;52.136;20.666;2023-05-29T06:01:42;10.32;;;3.60;;
56429;SDS011;42332;52.136;20.666;2023-05-29T06:04:08;10.70;;;3.17;;
56429;SDS011;42332;52.136;20.666;2023-05-29T06:06:34;7.90;;;3.38;;
56429;SDS011;42332;52.136;20.666;2023-05-29T06:08:59;10.10;;;3.17;;
56429;SDS011;42332;52.136;20.666;2023-05-29T06:11:25;22.30;;;3.95;;
56429;SDS011;42332;52.136;20.666;2023-05-29T06:13:50;8.30;;;2.63;;
56429;SDS011;42332;52.136;20.666;2023-05-29T06:16:16;12.35;;;3.08;;
56429;SDS011;42332;52.136;20.666;2023-05-29T06:18:42;12.98;;;4.57;;
56429;SDS011;42332;52.136;20.666;2023-05-29T06:21:07;10.77;;;2.67;;
56429;SDS011;42332;52.136;20.666;2023-05-29T06:23:34;8.20;;;2.95;;
56429;SDS011;42332;52.136;20.666;2023-05-29T06:26:01;14.25;;;3.00;;
56429;SDS011;42332;52.136;20.666;2023-05-29T06:28:26;12.85;;;3.50;;
56429;SDS011;42332;52.136;20.666;2023-05-29T06:30:52;13.10;;;3.58;;
56429;SDS011;42332;52.136;20.666;2023-05-29T06:33:17;12.25;;;3.00;;
56429;SDS011;42332;52.136;20.666;2023-05-29T06:35:42;15.15;;;4.82;;
56429;SDS011;42332;52.136;20.666;2023-05-29T06:38:08;7.22;;;2.78;;
56429;SDS011;42332;52.136;20.666;2023-05-29T06:40:33;9.05;;;2.60;;
56429;SDS011;42332;52.136;20.666;2023-05-29T06:42:59;12.10;;;2.55;;
56429;SDS011;42332;52.136;20.666;2023-05-29T06:45:25;7.47;;;2.00;;
56429;SDS011;42332;52.136;20.666;2023-05-29T06:47:50;8.25;;;2.50;;
56429;SDS011;42332;52.136;20.666;2023-05-29T06:50:16;11.70;;;3.15;;
56429;SDS011;42332;52.136;20.666;2023-05-29T06:52:41;8.18;;;3.78;;
56429;SDS011;42332;52.136;20.666;2023-05-29T06:55:07;7.45;;;2.30;;
56429;SDS011;42332;52.136;20.666;2023-05-29T06:57:32;12.60;;;3.55;;
56429;SDS011;42332;52.136;20.666;2023-05-29T06:59:57;10.05;;;2.83;;
56429;SDS011;42332;52.136;20.666;2023-05-29T07:02:23;7.75;;;2.60;;
56429;SDS011;42332;52.136;20.666;2023-05-29T07:04:48;11.10;;;2.90;;
56429;SDS011;42332;52.136;20.666;2023-05-29T07:07:13;9.32;;;2.70;;
56429;SDS011;42332;52.136;20.666;2023-05-29T07:09:39;12.68;;;2.63;;
56429;SDS011;42332;52.136;20.666;2023-05-29T07:12:05;10.77;;;2.78;;
56429;SDS011;42332;52.136;20.666;2023-05-29T07:14:30;15.57;;;2.95;;
56429;SDS011;42332;52.136;20.666;2023-05-29T07:16:56;10.32;;;3.10;;
56429;SDS011;42332;52.136;20.666;2023-05-29T07:19:21;8.90;;;2.38;;
56429;SDS011;42332;52.136;20.666;2023-05-29T07:21:47;8.20;;;2.13;;
56429;SDS011;42332;52.136;20.666;2023-05-29T07:24:12;9.43;;;3.30;;
56429;SDS011;42332;52.136;20.666;2023-05-29T07:26:37;5.85;;;2.10;;
56429;SDS011;42332;52.136;20.666;2023-05-29T07:29:03;6.13;;;1.80;;
56429;SDS011;42332;52.136;20.666;2023-05-29T07:31:28;6.85;;;1.95;;
56429;SDS011;42332;52.136;20.666;2023-05-29T07:33:54;7.18;;;2.25;;
56429;SDS011;42332;52.136;20.666;2023-05-29T07:36:20;6.05;;;2.20;;
56429;SDS011;42332;52.136;20.666;2023-05-29T07:38:45;5.60;;;2.33;;
56429;SDS011;42332;52.136;20.666;2023-05-29T07:41:10;6.40;;;1.70;;
56429;SDS011;42332;52.136;20.666;2023-05-29T07:43:36;6.50;;;1.70;;
56429;SDS011;42332;52.136;20.666;2023-05-29T07:46:01;7.60;;;1.60;;
56429;SDS011;42332;52.136;20.666;2023-05-29T07:48:27;7.40;;;1.80;;
56429;SDS011;42332;52.136;20.666;2023-05-29T07:50:52;13.30;;;2.03;;
56429;SDS011;42332;52.136;20.666;2023-05-29T07:53:17;5.50;;;2.10;;
56429;SDS011;42332;52.136;20.666;2023-05-29T07:55:43;9.50;;;1.75;;
56429;SDS011;42332;52.136;20.666;2023-05-29T07:58:08;7.45;;;1.70;;
56429;SDS011;42332;52.136;20.666;2023-05-29T08:00:36;5.13;;;1.70;;
56429;SDS011;42332;52.136;20.666;2023-05-29T08:03:02;4.80;;;1.30;;
56429;SDS011;42332;52.136;20.666;2023-05-29T08:05:28;7.60;;;1.60;;
56429;SDS011;42332;52.136;20.666;2023-05-29T08:07:54;5.10;;;1.67;;
56429;SDS011;42332;52.136;20.666;2023-05-29T08:10:20;6.30;;;1.73;;
56429;SDS011;42332;52.136;20.666;2023-05-29T08:12:45;3.70;;;1.38;;
56429;SDS011;42332;52.136;20.666;2023-05-29T08:15:11;5.63;;;1.52;;
56429;SDS011;42332;52.136;20.666;2023-05-29T08:17:37;10.60;;;1.63;;
56429;SDS011;42332;52.136;20.666;2023-05-29T08:20:02;7.10;;;1.55;;
56429;SDS011;42332;52.136;20.666;2023-05-29T08:22:30;5.75;;;1.27;;
56429;SDS011;42332;52.136;20.666;2023-05-29T08:24:58;9.57;;;1.33;;
56429;SDS011;42332;52.136;20.666;2023-05-29T08:27:24;2.80;;;1.10;;
56429;SDS011;42332;52.136;20.666;2023-05-29T08:29:49;9.20;;;1.45;;
56429;SDS011;42332;52.136;20.666;2023-05-29T08:32:14;4.57;;;1.42;;
56429;SDS011;42332;52.136;20.666;2023-05-29T08:34:40;5.43;;;1.48;;
56429;SDS011;42332;52.136;20.666;2023-05-29T08:37:06;8.93;;;1.50;;
56429;SDS011;42332;52.136;20.666;2023-05-29T08:39:32;5.57;;;1.65;;
56429;SDS011;42332;52.136;20.666;2023-05-29T08:41:59;9.13;;;1.70;;
56429;SDS011;42332;52.136;20.666;2023-05-29T08:44:26;4.80;;;1.38;;
56429;SDS011;42332;52.136;20.666;2023-05-29T08:46:55;4.97;;;1.30;;
56429;SDS011;42332;52.136;20.666;2023-05-29T08:49:21;3.15;;;1.20;;
56429;SDS011;42332;52.136;20.666;2023-05-29T08:51:53;3.03;;;1.15;;
56429;SDS011;42332;52.136;20.666;2023-05-29T08:54:22;6.20;;;1.35;;
56429;SDS011;42332;52.136;20.666;2023-05-29T08:56:48;5.53;;;1.20;;
56429;SDS011;42332;52.136;20.666;2023-05-29T08:59:13;8.07;;;1.52;;
56429;SDS011;42332;52.136;20.666;2023-05-29T09:01:39;4.65;;;1.50;;
56429;SDS011;42332;52.136;20.666;2023-05-29T09:04:05;9.32;;;1.50;;
56429;SDS011;42332;52.136;20.666;2023-05-29T09:06:30;7.35;;;1.27;;
56429;SDS011;42332;52.136;20.666;2023-05-29T09:08:56;5.22;;;1.27;;
56429;SDS011;42332;52.136;20.666;2023-05-29T09:11:22;7.07;;;1.70;;
56429;SDS011;42332;52.136;20.666;2023-05-29T09:13:48;22.65;;;2.83;;
56429;SDS011;42332;52.136;20.666;2023-05-29T09:16:16;3.88;;;1.13;;
56429;SDS011;42332;52.136;20.666;2023-05-29T09:18:41;34.20;;;2.20;;
56429;SDS011;42332;52.136;20.666;2023-05-29T09:21:10;4.80;;;1.50;;
56429;SDS011;42332;52.136;20.666;2023-05-29T09:23:36;4.35;;;1.50;;
56429;SDS011;42332;52.136;20.666;2023-05-29T09:26:02;3.90;;;1.35;;
56429;SDS011;42332;52.136;20.666;2023-05-29T09:28:27;5.32;;;1.63;;
56429;SDS011;42332;52.136;20.666;2023-05-29T09:30:56;11.70;;;1.73;;
56429;SDS011;42332;52.136;20.666;2023-05-29T09:33:21;7.50;;;1.40;;
56429;SDS011;42332;52.136;20.666;2023-05-29T09:35:48;8.30;;;1.50;;
56429;SDS011;42332;52.136;20.666;2023-05-29T09:38:15;4.75;;;1.27;;
56429;SDS011;42332;52.136;20.666;2023-05-29T09:40:41;6.18;;;1.48;;
56429;SDS011;42332;52.136;20.666;2023-05-29T09:43:10;8.73;;;2.00;;
56429;SDS011;42332;52.136;20.666;2023-05-29T09:45:40;4.03;;;1.30;;
56429;SDS011;42332;52.136;20.666;2023-05-29T09:48:07;10.98;;;2.25;;
56429;SDS011;42332;52.136;20.666;2023-05-29T09:50:34;6.65;;;2.03;;
56429;SDS011;42332;52.136;20.666;2023-05-29T09:53:00;3.65;;;1.20;;
56429;SDS011;42332;52.136;20.666;2023-05-29T09:55:27;3.78;;;1.40;;
56429;SDS011;42332;52.136;20.666;2023-05-29T09:57:53;5.93;;;1.63;;
56429;SDS011;42332;52.136;20.666;2023-05-29T10:00:19;3.92;;;1.30;;
56429;SDS011;42332;52.136;20.666;2023-05-29T10:02:45;8.77;;;1.63;;
56429;SDS011;42332;52.136;20.666;2023-05-29T10:05:10;5.07;;;1.73;;
56429;SDS011;42332;52.136;20.666;2023-05-29T10:07:37;3.75;;;1.35;;
56429;SDS011;42332;52.136;20.666;2023-05-29T10:10:03;12.18;;;1.50;;
56429;SDS011;42332;52.136;20.666;2023-05-29T10:12:31;4.15;;;1.65;;
56429;SDS011;42332;52.136;20.666;2023-05-29T10:14:58;10.57;;;1.80;;
56429;SDS011;42332;52.136;20.666;2023-05-29T10:17:25;7.03;;;1.50;;
56429;SDS011;42332;52.136;20.666;2023-05-29T10:19:52;7.05;;;1.80;;
56429;SDS011;42332;52.136;20.666;2023-05-29T10:22:19;6.75;;;1.45;;
56429;SDS011;42332;52.136;20.666;2023-05-29T10:24:45;5.25;;;1.60;;
56429;SDS011;42332;52.136;20.666;2023-05-29T10:27:13;7.55;;;1.80;;
56429;SDS011;42332;52.136;20.666;2023-05-29T10:35:08;6.90;;;1.77;;
56429;SDS011;42332;52.136;20.666;2023-05-29T10:40:22;4.32;;;1.52;;
56429;SDS011;42332;52.136;20.666;2023-05-29T10:42:51;9.23;;;2.20;;
56429;SDS011;42332;52.136;20.666;2023-05-29T10:50:41;4.43;;;1.40;;
56429;SDS011;42332;52.136;20.666;2023-05-29T10:53:16;6.18;;;2.05;;
56429;SDS011;42332;52.136;20.666;2023-05-29T10:55:44;5.85;;;1.60;;
56429;SDS011;42332;52.136;20.666;2023-05-29T10:58:14;7.65;;;1.95;;
56429;SDS011;42332;52.136;20.666;2023-05-29T11:00:43;5.32;;;1.75;;
56429;SDS011;42332;52.136;20.666;2023-05-29T11:03:11;11.23;;;1.70;;
56429;SDS011;42332;52.136;20.666;2023-05-29T11:08:33;7.10;;;1.98;;
56429;SDS011;42332;52.136;20.666;2023-05-29T11:11:00;6.95;;;1.85;;
56429;SDS011;42332;52.136;20.666;2023-05-29T11:13:26;9.43;;;2.00;;
56429;SDS011;42332;52.136;20.666;2023-05-29T11:16:13;13.15;;;2.63;;
56429;SDS011;42332;52.136;20.666;2023-05-29T11:18:46;3.65;;;1.40;;
56429;SDS011;42332;52.136;20.666;2023-05-29T11:21:21;4.38;;;1.80;;
56429;SDS011;42332;52.136;20.666;2023-05-29T11:23:51;9.80;;;1.67;;
56429;SDS011;42332;52.136;20.666;2023-05-29T11:26:22;8.82;;;1.50;;
56429;SDS011;42332;52.136;20.666;2023-05-29T11:28:48;9.23;;;2.00;;
56429;SDS011;42332;52.136;20.666;2023-05-29T11:31:14;6.38;;;1.77;;
56429;SDS011;42332;52.136;20.666;2023-05-29T11:33:41;6.53;;;1.55;;
56429;SDS011;42332;52.136;20.666;2023-05-29T11:36:14;6.60;;;2.13;;
56429;SDS011;42332;52.136;20.666;2023-05-29T11:38:41;8.52;;;1.88;;
56429;SDS011;42332;52.136;20.666;2023-05-29T11:41:06;4.90;;;1.65;;
56429;SDS011;42332;52.136;20.666;2023-05-29T11:43:32;8.38;;;1.60;;
56429;SDS011;42332;52.136;20.666;2023-05-29T11:45:58;5.50;;;1.60;;
56429;SDS011;42332;52.136;20.666;2023-05-29T11:48:23;5.07;;;1.60;;
56429;SDS011;42332;52.136;20.666;2023-05-29T11:50:48;7.18;;;1.80;;
56429;SDS011;42332;52.136;20.666;2023-05-29T11:53:14;5.53;;;1.40;;
56429;SDS011;42332;52.136;20.666;2023-05-29T11:55:40;5.18;;;1.35;;
56429;SDS011;42332;52.136;20.666;2023-05-29T11:58:05;5.00;;;1.60;;
56429;SDS011;42332;52.136;20.666;2023-05-29T12:00:31;4.47;;;1.45;;
56429;SDS011;42332;52.136;20.666;2023-05-29T12:03:01;6.05;;;1.80;;
56429;SDS011;42332;52.136;20.666;2023-05-29T12:05:33;12.40;;;2.10;;
56429;SDS011;42332;52.136;20.666;2023-05-29T12:08:09;4.95;;;1.90;;
56429;SDS011;42332;52.136;20.666;2023-05-29T12:10:35;6.25;;;1.70;;
56429;SDS011;42332;52.136;20.666;2023-05-29T12:13:00;5.93;;;1.50;;
56429;SDS011;42332;52.136;20.666;2023-05-29T12:15:26;7.82;;;1.90;;
56429;SDS011;42332;52.136;20.666;2023-05-29T12:17:52;10.55;;;1.70;;
56429;SDS011;42332;52.136;20.666;2023-05-29T12:20:18;7.82;;;2.47;;
56429;SDS011;42332;52.136;20.666;2023-05-29T12:22:47;13.77;;;2.00;;
56429;SDS011;42332;52.136;20.666;2023-05-29T12:25:13;5.10;;;1.58;;
56429;SDS011;42332;52.136;20.666;2023-05-29T12:27:40;4.70;;;1.65;;
56429;SDS011;42332;52.136;20.666;2023-05-29T12:32:43;6.45;;;1.60;;
56429;SDS011;42332;52.136;20.666;2023-05-29T12:37:35;6.35;;;2.00;;
56429;SDS011;42332;52.136;20.666;2023-05-29T12:40:20;6.18;;;1.70;;
56429;SDS011;42332;52.136;20.666;2023-05-29T12:42:47;5.32;;;1.63;;
56429;SDS011;42332;52.136;20.666;2023-05-29T12:45:12;6.90;;;1.50;;
56429;SDS011;42332;52.136;20.666;2023-05-29T12:47:44;8.30;;;2.15;;
56429;SDS011;42332;52.136;20.666;2023-05-29T12:50:29;5.43;;;1.50;;
56429;SDS011;42332;52.136;20.666;2023-05-29T12:55:31;6.28;;;1.60;;
56429;SDS011;42332;52.136;20.666;2023-05-29T12:58:04;4.13;;;1.40;;
56429;SDS011;42332;52.136;20.666;2023-05-29T13:00:41;4.28;;;1.40;;
56429;SDS011;42332;52.136;20.666;2023-05-29T13:03:08;3.65;;;1.42;;
56429;SDS011;42332;52.136;20.666;2023-05-29T13:05:33;10.20;;;1.40;;
56429;SDS011;42332;52.136;20.666;2023-05-29T13:08:00;6.55;;;1.98;;
56429;SDS011;42332;52.136;20.666;2023-05-29T13:10:25;5.25;;;1.50;;
56429;SDS011;42332;52.136;20.666;2023-05-29T13:12:52;4.63;;;1.60;;
56429;SDS011;42332;52.136;20.666;2023-05-29T13:15:23;10.43;;;2.15;;
56429;SDS011;42332;52.136;20.666;2023-05-29T13:17:49;7.63;;;1.70;;
56429;SDS011;42332;52.136;20.666;2023-05-29T13:20:15;15.40;;;1.67;;
56429;SDS011;42332;52.136;20.666;2023-05-29T13:22:42;6.93;;;1.88;;
56429;SDS011;42332;52.136;20.666;2023-05-29T13:25:08;7.05;;;1.50;;
56429;SDS011;42332;52.136;20.666;2023-05-29T13:27:38;6.00;;;1.65;;
56429;SDS011;42332;52.136;20.666;2023-05-29T13:30:05;7.25;;;1.80;;
56429;SDS011;42332;52.136;20.666;2023-05-29T13:32:31;7.15;;;1.85;;
56429;SDS011;42332;52.136;20.666;2023-05-29T13:34:57;10.70;;;1.90;;
56429;SDS011;42332;52.136;20.666;2023-05-29T13:37:22;6.72;;;1.38;;
56429;SDS011;42332;52.136;20.666;2023-05-29T13:39:48;6.50;;;1.80;;
56429;SDS011;42332;52.136;20.666;2023-05-29T13:42:13;96.47;;;5.13;;
56429;SDS011;42332;52.136;20.666;2023-05-29T13:44:39;7.47;;;2.17;;
56429;SDS011;42332;52.136;20.666;2023-05-29T13:47:05;8.65;;;1.80;;
56429;SDS011;42332;52.136;20.666;2023-05-29T13:49:31;6.63;;;1.92;;
56429;SDS011;42332;52.136;20.666;2023-05-29T13:51:56;7.28;;;1.88;;
56429;SDS011;42332;52.136;20.666;2023-05-29T13:54:22;5.75;;;1.60;;
56429;SDS011;42332;52.136;20.666;2023-05-29T13:56:47;4.57;;;1.42;;
56429;SDS011;42332;52.136;20.666;2023-05-29T13:59:13;8.70;;;1.67;;
56429;SDS011;42332;52.136;20.666;2023-05-29T14:01:38;7.47;;;1.85;;
56429;SDS011;42332;52.136;20.666;2023-05-29T14:04:04;7.90;;;1.77;;
56429;SDS011;42332;52.136;20.666;2023-05-29T14:06:29;5.95;;;1.70;;
56429;SDS011;42332;52.136;20.666;2023-05-29T14:08:55;13.88;;;1.80;;
56429;SDS011;42332;52.136;20.666;2023-05-29T14:11:21;8.38;;;2.05;;
56429;SDS011;42332;52.136;20.666;2023-05-29T14:13:46;6.57;;;1.70;;
56429;SDS011;42332;52.136;20.666;2023-05-29T14:16:12;6.40;;;1.75;;
56429;SDS011;42332;52.136;20.666;2023-05-29T14:18:39;5.63;;;1.88;;
56429;SDS011;42332;52.136;20.666;2023-05-29T14:21:04;8.18;;;1.92;;
56429;SDS011;42332;52.136;20.666;2023-05-29T14:23:30;10.43;;;2.00;;
56429;SDS011;42332;52.136;20.666;2023-05-29T14:25:55;8.45;;;1.92;;
56429;SDS011;42332;52.136;20.666;2023-05-29T14:28:21;6.78;;;1.60;;
56429;SDS011;42332;52.136;20.666;2023-05-29T14:30:46;5.07;;;1.77;;
56429;SDS011;42332;52.136;20.666;2023-05-29T14:33:11;8.90;;;1.75;;
56429;SDS011;42332;52.136;20.666;2023-05-29T14:35:37;7.93;;;2.88;;
56429;SDS011;42332;52.136;20.666;2023-05-29T14:38:02;10.20;;;2.17;;
56429;SDS011;42332;52.136;20.666;2023-05-29T14:40:27;8.32;;;2.05;;
56429;SDS011;42332;52.136;20.666;2023-05-29T14:43:00;12.63;;;2.22;;
56429;SDS011;42332;52.136;20.666;2023-05-29T14:45:26;10.90;;;1.90;;
56429;SDS011;42332;52.136;20.666;2023-05-29T14:47:51;5.78;;;2.10;;
56429;SDS011;42332;52.136;20.666;2023-05-29T14:50:16;14.60;;;2.25;;
56429;SDS011;42332;52.136;20.666;2023-05-29T14:52:42;7.43;;;1.95;;
56429;SDS011;42332;52.136;20.666;2023-05-29T14:55:07;8.90;;;2.00;;
56429;SDS011;42332;52.136;20.666;2023-05-29T14:57:32;5.80;;;2.08;;
56429;SDS011;42332;52.136;20.666;2023-05-29T14:59:59;9.32;;;2.05;;
56429;SDS011;42332;52.136;20.666;2023-05-29T15:02:25;12.55;;;1.80;;
56429;SDS011;42332;52.136;20.666;2023-05-29T15:04:50;51.15;;;3.00;;